createdAt,value
2022-11-15T00:00:57.794Z,6.10
2022-11-15T00:03:20.279Z,6.60
2022-11-15T00:05:40.473Z,6.57
2022-11-15T00:08:00.674Z,7.27
2022-11-15T00:10:21.449Z,6.97
2022-11-15T00:12:42.215Z,6.37
2022-11-15T00:15:03.187Z,7.03
2022-11-15T00:17:23.631Z,7.40
2022-11-15T00:19:43.932Z,6.97
2022-11-15T00:22:04.489Z,7.20
2022-11-15T00:24:25.087Z,6.80
2022-11-15T00:26:45.555Z,7.00
2022-11-15T00:29:06.607Z,6.67
2022-11-15T00:31:26.989Z,7.90
2022-11-15T00:33:47.485Z,7.80
2022-11-15T00:36:13.697Z,7.77
2022-11-15T00:38:35.949Z,7.17
2022-11-15T00:40:56.422Z,7.17
2022-11-15T00:43:17.557Z,6.83
2022-11-15T00:45:39.770Z,6.93
2022-11-15T00:48:00.578Z,6.27
2022-11-15T00:50:20.832Z,7.00
2022-11-15T00:52:41.524Z,6.83
2022-11-15T00:55:01.992Z,7.00
2022-11-15T00:57:22.581Z,7.30
2022-11-15T00:59:43.050Z,6.47
2022-11-15T01:02:03.575Z,7.60
2022-11-15T01:04:23.852Z,7.07
2022-11-15T01:06:44.393Z,7.70
2022-11-15T01:09:05.134Z,6.80
2022-11-15T01:11:25.449Z,7.20
2022-11-15T01:13:45.909Z,6.73
2022-11-15T01:16:19.817Z,6.80
2022-11-15T01:18:40.590Z,6.70
2022-11-15T01:21:05.438Z,6.67
2022-11-15T01:23:25.914Z,6.73
2022-11-15T01:25:46.480Z,6.20
2022-11-15T01:28:07.001Z,6.30
2022-11-15T01:30:28.125Z,5.00
2022-11-15T01:32:48.491Z,5.40
2022-11-15T01:35:09.487Z,4.83
2022-11-15T01:37:30.004Z,5.13
2022-11-15T01:39:50.418Z,5.23
2022-11-15T01:42:14.924Z,4.60
2022-11-15T01:44:49.507Z,4.93
2022-11-15T01:47:23.801Z,4.00
2022-11-15T01:50:00.683Z,4.20
2022-11-15T01:52:23.326Z,4.43
2022-11-15T01:54:44.392Z,4.23
2022-11-15T01:57:11.898Z,4.00
2022-11-15T01:59:33.270Z,4.10
2022-11-15T02:01:54.148Z,4.13
2022-11-15T02:04:19.346Z,4.40
2022-11-15T02:06:42.086Z,4.13
2022-11-15T02:09:03.230Z,4.40
2022-11-15T02:11:24.104Z,4.53
2022-11-15T02:13:45.732Z,4.67
2022-11-15T02:16:33.848Z,4.83
2022-11-15T02:19:02.896Z,5.00
2022-11-15T02:21:42.167Z,5.40
2022-11-15T02:24:34.702Z,4.70
2022-11-15T02:27:18.396Z,4.97
2022-11-15T02:30:07.358Z,5.20
2022-11-15T02:32:56.966Z,5.47
2022-11-15T02:35:36.213Z,5.40
2022-11-15T02:38:43.872Z,4.63
2022-11-15T02:41:11.600Z,4.90
2022-11-15T02:44:04.201Z,5.07
2022-11-15T02:46:52.675Z,5.00
2022-11-15T02:49:13.988Z,5.03
2022-11-15T02:51:34.503Z,5.00
2022-11-15T02:53:54.918Z,5.17
2022-11-15T02:56:15.297Z,5.27
2022-11-15T02:58:54.980Z,5.03
2022-11-15T03:01:24.546Z,5.37
2022-11-15T03:04:04.030Z,4.80
2022-11-15T03:06:27.189Z,3.83
2022-11-15T03:09:19.627Z,4.10
2022-11-15T03:11:49.104Z,3.53
2022-11-15T03:14:24.513Z,3.37
2022-11-15T03:17:00.377Z,3.30
2022-11-15T03:19:29.849Z,3.47
2022-11-15T03:21:52.138Z,3.60
2022-11-15T03:24:15.310Z,3.37
2022-11-15T03:26:39.739Z,3.47
2022-11-15T03:29:05.666Z,3.17
2022-11-15T03:31:50.989Z,3.50
2022-11-15T03:34:20.021Z,3.33
2022-11-15T03:36:40.639Z,3.27
2022-11-15T03:39:06.143Z,3.40
2022-11-15T03:41:38.671Z,3.23
2022-11-15T03:44:12.965Z,3.00
2022-11-15T03:46:41.124Z,3.00
2022-11-15T03:49:30.225Z,3.00
2022-11-15T03:51:50.800Z,2.90
2022-11-15T03:54:14.373Z,3.00
2022-11-15T03:56:35.033Z,3.03
2022-11-15T03:58:55.611Z,3.07
2022-11-15T04:01:16.221Z,2.87
2022-11-15T04:03:36.618Z,2.70
2022-11-15T04:05:56.920Z,2.70
2022-11-15T04:08:17.291Z,2.97
2022-11-15T04:10:38.091Z,3.20
2022-11-15T04:12:58.821Z,2.80
2022-11-15T04:15:22.377Z,2.80
2022-11-15T04:17:54.524Z,3.30
2022-11-15T04:20:37.719Z,2.93
2022-11-15T04:23:18.442Z,3.00
2022-11-15T04:25:39.200Z,2.87
2022-11-15T04:27:59.802Z,2.80
2022-11-15T04:30:20.585Z,3.10
2022-11-15T04:32:41.341Z,2.63
2022-11-15T04:35:01.513Z,3.17
2022-11-15T04:37:22.147Z,2.97
2022-11-15T04:39:43.960Z,3.00
2022-11-15T04:42:04.621Z,2.90
2022-11-15T04:44:25.132Z,3.13
2022-11-15T04:46:45.788Z,3.60
2022-11-15T04:49:06.149Z,3.30
2022-11-15T04:51:27.464Z,3.43
2022-11-15T04:53:47.739Z,3.50
2022-11-15T04:56:08.568Z,3.60
2022-11-15T04:58:29.245Z,3.67
2022-11-15T05:00:49.383Z,3.80
2022-11-15T05:03:29.616Z,3.60
2022-11-15T05:05:51.477Z,4.00
2022-11-15T05:08:12.154Z,3.80
2022-11-15T05:10:32.857Z,3.53
2022-11-15T05:12:53.424Z,3.37
2022-11-15T05:15:13.947Z,3.80
2022-11-15T05:17:35.265Z,3.70
2022-11-15T05:19:55.867Z,4.40
2022-11-15T05:22:17.711Z,3.80
2022-11-15T05:24:38.218Z,4.83
2022-11-15T05:26:58.472Z,4.00
2022-11-15T05:29:20.079Z,4.57
2022-11-15T05:31:44.106Z,4.30
2022-11-15T05:34:05.542Z,4.60
2022-11-15T05:36:37.582Z,4.30
2022-11-15T05:38:58.894Z,4.43
2022-11-15T05:41:33.089Z,4.30
2022-11-15T05:43:55.291Z,4.30
2022-11-15T05:46:15.789Z,4.00
2022-11-15T05:48:38.264Z,4.20
2022-11-15T05:50:59.404Z,4.23
2022-11-15T05:53:22.530Z,3.80
2022-11-15T05:55:43.462Z,3.80
2022-11-15T05:58:03.987Z,3.43
2022-11-15T06:00:24.889Z,3.30
2022-11-15T06:02:45.607Z,3.30
2022-11-15T06:05:06.773Z,3.93
2022-11-15T06:07:30.946Z,3.50
2022-11-15T06:09:51.539Z,3.50
2022-11-15T06:12:12.680Z,3.80
2022-11-15T06:14:33.053Z,3.70
2022-11-15T06:16:53.402Z,3.27
2022-11-15T06:19:14.037Z,3.30
2022-11-15T06:21:34.611Z,3.70
2022-11-15T06:23:54.914Z,3.27
2022-11-15T06:26:15.220Z,3.50
2022-11-15T06:28:36.286Z,3.00
2022-11-15T06:30:58.190Z,3.23
2022-11-15T06:33:22.060Z,2.60
2022-11-15T06:35:42.774Z,2.83
2022-11-15T06:38:08.260Z,2.73
2022-11-15T06:40:29.535Z,2.57
2022-11-15T06:42:49.975Z,3.03
2022-11-15T06:45:11.451Z,2.57
2022-11-15T06:47:32.232Z,2.53
2022-11-15T06:49:52.977Z,2.87
2022-11-15T06:52:13.490Z,2.73
2022-11-15T06:54:35.804Z,2.60
2022-11-15T06:56:56.599Z,3.53
2022-11-15T06:59:18.009Z,2.70
2022-11-15T07:01:38.837Z,3.37
2022-11-15T07:04:01.324Z,3.23
2022-11-15T07:06:22.212Z,3.20
2022-11-15T07:08:42.924Z,2.53
2022-11-15T07:11:06.878Z,3.00
2022-11-15T07:13:28.528Z,2.57
2022-11-15T07:15:48.783Z,2.80
2022-11-15T07:18:09.391Z,3.10
2022-11-15T07:20:31.941Z,3.40
2022-11-15T07:23:00.938Z,2.83
2022-11-15T07:25:22.865Z,3.23
2022-11-15T07:27:43.471Z,2.77
2022-11-15T07:30:06.028Z,2.43
2022-11-15T07:32:26.729Z,2.23
2022-11-15T07:34:47.634Z,2.40
2022-11-15T07:37:08.146Z,2.30
2022-11-15T07:39:28.452Z,2.23
2022-11-15T07:41:50.446Z,2.50
2022-11-15T07:44:11.219Z,2.43
2022-11-15T07:46:32.553Z,2.93
2022-11-15T07:48:56.194Z,2.50
2022-11-15T07:51:17.693Z,2.53
2022-11-15T07:53:38.263Z,2.87
2022-11-15T07:55:58.559Z,2.17
2022-11-15T07:58:18.821Z,2.23
2022-11-15T08:00:39.492Z,2.13
2022-11-15T08:03:11.330Z,2.07
2022-11-15T08:05:35.090Z,2.80
2022-11-15T08:07:59.322Z,2.73
2022-11-15T08:10:25.803Z,3.20
2022-11-15T08:12:46.537Z,3.50
2022-11-15T08:15:11.104Z,2.53
2022-11-15T08:17:33.731Z,2.30
2022-11-15T08:19:54.023Z,2.37
2022-11-15T08:22:15.336Z,2.30
2022-11-15T08:24:35.740Z,2.23
2022-11-15T08:26:56.154Z,2.30
2022-11-15T08:29:17.276Z,4.80
2022-11-15T08:31:37.908Z,2.70
2022-11-15T08:34:05.289Z,3.13
2022-11-15T08:36:29.749Z,2.40
2022-11-15T08:38:53.094Z,1.97
2022-11-15T08:41:37.745Z,2.10
2022-11-15T08:43:58.566Z,2.13
2022-11-15T08:46:20.005Z,1.97
2022-11-15T08:48:41.913Z,2.40
2022-11-15T08:51:03.067Z,2.33
2022-11-15T08:53:23.726Z,2.30
2022-11-15T08:55:44.189Z,2.43
2022-11-15T08:58:05.148Z,2.20
2022-11-15T09:00:25.918Z,2.27
2022-11-15T09:02:46.452Z,2.20
2022-11-15T09:05:07.632Z,2.13
2022-11-15T09:07:33.249Z,2.33
2022-11-15T09:09:53.627Z,2.23
2022-11-15T09:12:14.119Z,2.43
2022-11-15T09:14:35.292Z,2.33
2022-11-15T09:16:56.207Z,2.20
2022-11-15T09:19:16.734Z,2.10
2022-11-15T09:21:36.776Z,2.30
2022-11-15T09:23:58.042Z,2.33
2022-11-15T09:26:18.756Z,2.80
2022-11-15T09:28:42.865Z,2.50
2022-11-15T09:31:05.563Z,2.60
2022-11-15T09:33:27.267Z,2.70
2022-11-15T09:35:47.917Z,2.60
2022-11-15T09:38:08.603Z,2.87
2022-11-15T09:40:30.900Z,2.70
2022-11-15T09:43:10.390Z,3.07
2022-11-15T09:45:54.108Z,3.00
2022-11-15T09:48:40.399Z,3.80
2022-11-15T09:51:05.619Z,3.63
2022-11-15T09:53:13.341Z,3.90
2022-11-15T09:55:22.188Z,3.83
2022-11-15T09:57:44.701Z,4.03
2022-11-15T10:00:12.242Z,3.87
2022-11-15T10:02:47.207Z,4.20
2022-11-15T10:04:49.333Z,3.97
2022-11-15T10:06:58.962Z,4.37
2022-11-15T10:09:08.682Z,4.70
2022-11-15T10:13:37.569Z,4.27
2022-11-15T10:15:39.416Z,4.20
2022-11-15T10:18:08.177Z,4.23
2022-11-15T10:20:22.380Z,4.03
2022-11-15T10:22:39.906Z,4.10
2022-11-15T10:24:45.268Z,4.27
2022-11-15T10:26:50.649Z,4.03
2022-11-15T10:28:52.509Z,3.70
2022-11-15T10:30:56.698Z,3.40
2022-11-15T10:33:27.158Z,3.50
2022-11-15T10:35:31.077Z,4.03
2022-11-15T10:37:33.922Z,3.30
2022-11-15T10:39:35.958Z,3.73
2022-11-15T10:41:40.787Z,3.40
2022-11-15T10:43:43.145Z,3.37
2022-11-15T10:45:46.177Z,3.43
2022-11-15T10:47:47.982Z,3.47
2022-11-15T10:50:28.408Z,3.23
2022-11-15T10:52:32.657Z,3.00
2022-11-15T10:54:40.998Z,3.40
2022-11-15T10:56:43.762Z,3.67
2022-11-15T10:58:56.523Z,3.60
2022-11-15T11:01:13.473Z,3.07
2022-11-15T11:03:36.643Z,3.00
2022-11-15T11:05:42.725Z,3.03
2022-11-15T11:08:00.845Z,3.20
2022-11-15T11:10:02.724Z,3.43
2022-11-15T11:12:07.150Z,3.20
2022-11-15T11:14:29.671Z,2.87
2022-11-15T11:16:45.802Z,3.40
2022-11-15T11:18:53.790Z,2.87
2022-11-15T11:21:02.914Z,3.00
2022-11-15T11:23:23.513Z,3.00
2022-11-15T11:25:44.724Z,3.00
2022-11-15T11:27:55.354Z,3.13
2022-11-15T11:30:15.307Z,2.87
2022-11-15T11:32:40.151Z,2.90
2022-11-15T11:34:47.985Z,3.00
2022-11-15T11:37:04.033Z,3.17
2022-11-15T11:39:44.730Z,3.00
2022-11-15T11:42:15.788Z,3.20
2022-11-15T11:44:45.080Z,2.50
2022-11-15T11:47:11.848Z,2.90
2022-11-15T11:49:38.371Z,2.80
2022-11-15T11:51:56.037Z,2.47
2022-11-15T11:54:09.599Z,2.40
2022-11-15T11:56:30.715Z,2.30
2022-11-15T11:58:45.043Z,2.40
2022-11-15T12:01:09.942Z,2.07
2022-11-15T12:03:28.524Z,1.80
2022-11-15T12:05:41.400Z,1.80
2022-11-15T12:07:47.670Z,1.60
2022-11-15T12:10:04.719Z,1.63
2022-11-15T12:12:25.050Z,2.10
2022-11-15T12:14:54.287Z,1.80
2022-11-15T12:16:56.233Z,1.57
2022-11-15T12:19:01.641Z,1.47
2022-11-15T12:21:28.833Z,1.80
2022-11-15T12:23:43.084Z,1.83
2022-11-15T12:25:47.850Z,1.70
2022-11-15T12:28:05.235Z,1.70
2022-11-15T12:30:29.159Z,1.80
2022-11-15T12:32:35.962Z,1.90
2022-11-15T12:34:47.874Z,1.73
2022-11-15T12:36:52.506Z,1.70
2022-11-15T12:38:59.348Z,2.00
2022-11-15T12:41:18.731Z,1.90
2022-11-15T12:43:20.851Z,1.70
2022-11-15T12:45:33.766Z,1.90
2022-11-15T12:47:35.552Z,2.00
2022-11-15T12:49:37.414Z,1.50
2022-11-15T12:51:51.829Z,1.73
2022-11-15T12:53:53.684Z,1.73
2022-11-15T12:56:15.907Z,1.73
2022-11-15T12:58:42.125Z,1.73
2022-11-15T13:00:45.156Z,1.80
2022-11-15T13:02:49.437Z,1.87
2022-11-15T13:04:55.032Z,1.70
2022-11-15T13:07:02.747Z,1.40
2022-11-15T13:09:07.214Z,1.73
2022-11-15T13:11:51.372Z,1.43
2022-11-15T13:13:54.293Z,1.60
2022-11-15T13:15:59.586Z,1.63
2022-11-15T13:18:26.520Z,1.50
2022-11-15T13:20:34.082Z,1.63
2022-11-15T13:23:00.596Z,1.80
2022-11-15T13:25:04.936Z,1.33
2022-11-15T13:27:27.152Z,1.50
2022-11-15T13:29:34.706Z,1.70
2022-11-15T13:31:43.616Z,1.30
2022-11-15T13:33:45.568Z,1.50
2022-11-15T13:35:53.741Z,1.57
2022-11-15T13:38:00.458Z,1.40
2022-11-15T13:40:37.082Z,1.40
2022-11-15T13:42:44.547Z,1.63
2022-11-15T13:45:04.355Z,1.47
2022-11-15T13:47:06.293Z,1.70
2022-11-15T13:49:12.383Z,1.70
2022-11-15T13:51:34.962Z,1.60
2022-11-15T13:53:41.087Z,1.90
2022-11-15T13:55:42.962Z,1.70
2022-11-15T13:57:52.263Z,1.63
2022-11-15T14:00:02.354Z,1.60
2022-11-15T14:02:18.152Z,1.73
2022-11-15T14:04:23.374Z,1.77
2022-11-15T14:06:28.333Z,1.80
2022-11-15T14:08:30.508Z,1.60
2022-11-15T14:10:35.058Z,1.77
2022-11-15T14:12:37.597Z,1.97
2022-11-15T14:14:46.888Z,2.00
2022-11-15T14:16:51.809Z,1.70
2022-11-15T14:18:54.413Z,1.70
2022-11-15T14:21:08.596Z,1.70
2022-11-15T14:23:28.396Z,1.70
2022-11-15T14:25:36.172Z,1.80
2022-11-15T14:27:38.153Z,2.00
2022-11-15T14:29:40.634Z,2.70
2022-11-15T14:31:43.983Z,2.37
2022-11-15T14:33:46.610Z,2.50
2022-11-15T14:35:48.821Z,2.50
2022-11-15T14:37:51.385Z,2.10
2022-11-15T14:39:54.237Z,1.80
2022-11-15T14:41:56.306Z,1.83
2022-11-15T14:43:58.874Z,1.70
2022-11-15T14:46:01.382Z,2.00
2022-11-15T14:48:03.174Z,1.83
2022-11-15T14:50:05.569Z,2.00
2022-11-15T14:52:32.928Z,1.90
2022-11-15T14:54:35.130Z,1.60
2022-11-15T14:56:37.375Z,1.57
2022-11-15T14:58:39.210Z,1.50
2022-11-15T15:00:42.766Z,1.90
2022-11-15T15:02:46.360Z,1.70
2022-11-15T15:04:48.752Z,1.87
2022-11-15T15:06:50.924Z,1.80
2022-11-15T15:08:53.177Z,2.00
2022-11-15T15:10:55.272Z,2.50
2022-11-15T15:12:57.028Z,2.90
2022-11-15T15:14:59.217Z,2.27
2022-11-15T15:17:01.223Z,2.23
2022-11-15T15:19:03.598Z,4.03
2022-11-15T15:21:23.914Z,2.40
2022-11-15T15:23:29.005Z,2.90
2022-11-15T15:25:36.051Z,3.90
2022-11-15T15:27:37.869Z,2.50
2022-11-15T15:29:40.059Z,1.83
2022-11-15T15:31:43.949Z,1.80
2022-11-15T15:33:50.951Z,1.70
2022-11-15T15:35:53.595Z,1.80
2022-11-15T15:38:01.832Z,1.90
2022-11-15T15:40:12.065Z,2.03
2022-11-15T15:42:13.814Z,1.90
2022-11-15T15:44:16.536Z,1.80
2022-11-15T15:46:20.353Z,1.90
2022-11-15T15:48:23.047Z,1.83
2022-11-15T15:50:32.937Z,1.63
2022-11-15T15:52:34.889Z,1.90
2022-11-15T15:54:36.981Z,2.17
2022-11-15T15:56:39.005Z,2.00
2022-11-15T15:58:48.070Z,2.23
2022-11-15T16:00:52.305Z,2.13
2022-11-15T16:02:56.526Z,2.03
2022-11-15T16:05:00.811Z,1.70
2022-11-15T16:07:04.806Z,2.70
2022-11-15T16:09:16.214Z,2.00
2022-11-15T16:11:18.614Z,1.80
2022-11-15T16:13:22.847Z,1.93
2022-11-15T16:15:31.162Z,2.00
2022-11-15T16:17:41.297Z,2.10
2022-11-15T16:19:43.077Z,2.00
2022-11-15T16:21:44.876Z,2.00
2022-11-15T16:23:46.564Z,2.30
2022-11-15T16:25:50.837Z,2.80
2022-11-15T16:27:54.173Z,2.57
2022-11-15T16:29:56.046Z,2.37
2022-11-15T16:31:58.046Z,2.43
2022-11-15T16:33:59.901Z,2.77
2022-11-15T16:36:02.573Z,2.53
2022-11-15T16:38:04.598Z,2.70
2022-11-15T16:40:19.190Z,2.43
2022-11-15T16:42:22.155Z,2.10
2022-11-15T16:44:24.904Z,2.10
2022-11-15T16:46:28.096Z,2.10
2022-11-15T16:48:30.482Z,1.93
2022-11-15T16:50:41.380Z,2.17
2022-11-15T16:52:46.453Z,2.77
2022-11-15T16:54:48.451Z,2.03
2022-11-15T16:56:50.371Z,2.80
2022-11-15T16:58:54.604Z,2.00
2022-11-15T17:00:57.405Z,2.13
2022-11-15T17:03:01.679Z,3.30
2022-11-15T17:05:09.601Z,3.20
2022-11-15T17:07:13.069Z,2.93
2022-11-15T17:09:16.790Z,2.10
2022-11-15T17:11:22.944Z,2.90
2022-11-15T17:13:24.815Z,3.83
2022-11-15T17:15:29.672Z,4.93
2022-11-15T17:17:31.839Z,4.07
2022-11-15T17:19:33.946Z,5.00
2022-11-15T17:21:35.717Z,4.13
2022-11-15T17:24:05.281Z,3.30
2022-11-15T17:26:24.104Z,3.07
2022-11-15T17:28:30.253Z,2.90
2022-11-15T17:30:35.608Z,2.57
2022-11-15T17:32:40.474Z,2.60
2022-11-15T17:34:42.365Z,3.40
2022-11-15T17:36:44.551Z,2.93
2022-11-15T17:38:56.527Z,2.90
2022-11-15T17:41:21.161Z,2.80
2022-11-15T17:43:22.981Z,4.27
2022-11-15T17:45:24.789Z,3.90
2022-11-15T17:47:27.064Z,5.00
2022-11-15T17:49:30.730Z,3.50
2022-11-15T17:51:33.520Z,3.30
2022-11-15T17:53:37.553Z,3.07
2022-11-15T17:56:17.686Z,3.00
2022-11-15T18:01:54.172Z,2.83
2022-11-15T18:04:00.140Z,2.80
2022-11-15T18:06:05.249Z,3.10
2022-11-15T18:11:50.683Z,3.10
2022-11-15T18:14:00.579Z,3.40
2022-11-15T18:16:04.611Z,3.00
2022-11-15T18:18:08.193Z,3.33
2022-11-15T18:20:12.513Z,3.10
2022-11-15T18:22:14.309Z,3.30
2022-11-15T18:24:16.684Z,3.03
2022-11-15T18:26:21.861Z,2.97
2022-11-15T18:28:34.879Z,2.80
2022-11-15T18:30:39.013Z,3.20
2022-11-15T18:32:40.932Z,2.97
2022-11-15T18:34:42.789Z,3.30
2022-11-15T18:36:45.064Z,3.60
2022-11-15T18:38:47.368Z,4.13
2022-11-15T18:40:49.413Z,4.20
2022-11-15T18:42:55.148Z,3.80
2022-11-15T18:44:57.223Z,3.40
2022-11-15T18:46:59.377Z,3.40
2022-11-15T18:49:02.434Z,3.20
2022-11-15T18:51:06.682Z,3.43
2022-11-15T18:53:09.047Z,3.20
2022-11-15T18:55:11.290Z,3.50
2022-11-15T18:57:13.444Z,2.90
2022-11-15T18:59:16.357Z,3.00
2022-11-15T19:01:26.547Z,3.13
2022-11-15T19:03:34.840Z,3.10
2022-11-15T19:05:36.995Z,3.60
2022-11-15T19:07:38.859Z,3.27
2022-11-15T19:09:43.564Z,3.60
2022-11-15T19:11:47.516Z,3.40
2022-11-15T19:13:58.563Z,3.37
2022-11-15T19:16:01.996Z,3.53
2022-11-15T19:18:03.814Z,3.83
2022-11-15T19:20:06.481Z,4.50
2022-11-15T19:22:08.340Z,4.20
2022-11-15T19:24:11.368Z,3.87
2022-11-15T19:26:15.802Z,4.00
2022-11-15T19:28:20.826Z,3.80
2022-11-15T19:30:24.624Z,3.40
2022-11-15T19:32:28.972Z,3.87
2022-11-15T19:34:31.243Z,3.77
2022-11-15T19:36:44.280Z,4.17
2022-11-15T19:38:46.416Z,4.70
2022-11-15T19:40:48.242Z,4.73
2022-11-15T19:42:50.103Z,4.27
2022-11-15T19:44:52.502Z,4.10
2022-11-15T19:46:54.362Z,4.10
2022-11-15T19:48:56.935Z,3.87
2022-11-15T19:51:04.033Z,4.20
2022-11-15T19:53:05.961Z,3.90
2022-11-15T19:55:08.884Z,4.60
2022-11-15T19:57:10.679Z,4.77
2022-11-15T19:59:13.832Z,4.97
2022-11-15T20:01:23.732Z,4.60
2022-11-15T20:03:25.620Z,4.57
2022-11-15T20:05:27.850Z,4.20
2022-11-15T20:07:30.006Z,4.40
2022-11-15T20:09:32.166Z,5.47
2022-11-15T20:11:34.449Z,6.17
2022-11-15T20:13:36.559Z,5.73
2022-11-15T20:15:38.582Z,6.70
2022-11-15T20:17:40.722Z,6.10
2022-11-15T20:19:42.714Z,5.60
2022-11-15T20:21:44.601Z,6.33
2022-11-15T20:23:49.500Z,5.40
2022-11-15T20:25:52.316Z,4.67
2022-11-15T20:27:54.093Z,5.13
2022-11-15T20:29:56.122Z,4.67
2022-11-15T20:31:57.814Z,4.43
2022-11-15T20:34:00.187Z,4.57
2022-11-15T20:36:11.456Z,4.77
2022-11-15T20:38:13.784Z,4.67
2022-11-15T20:40:15.870Z,4.40
2022-11-15T20:42:20.676Z,5.23
2022-11-15T20:44:22.548Z,5.37
2022-11-15T20:46:27.261Z,5.23
2022-11-15T20:48:29.428Z,5.33
2022-11-15T20:50:46.151Z,5.23
2022-11-15T20:52:47.978Z,5.10
2022-11-15T20:54:52.464Z,4.77
2022-11-15T20:56:54.261Z,4.47
2022-11-15T20:58:56.742Z,4.47
2022-11-15T21:00:59.497Z,4.63
2022-11-15T21:03:02.566Z,5.17
2022-11-15T21:05:05.414Z,4.70
2022-11-15T21:07:10.577Z,4.87
2022-11-15T21:09:31.404Z,4.57
2022-11-15T21:11:51.747Z,4.57
2022-11-15T21:13:53.539Z,5.20
2022-11-15T21:15:57.634Z,4.83
2022-11-15T21:17:59.670Z,4.90
2022-11-15T21:20:01.910Z,4.73
2022-11-15T21:22:06.470Z,4.67
2022-11-15T21:24:09.774Z,4.90
2022-11-15T21:26:11.656Z,4.87
2022-11-15T21:28:13.783Z,4.60
2022-11-15T21:30:15.562Z,5.10
2022-11-15T21:32:17.410Z,4.60
2022-11-15T21:34:21.937Z,4.73
2022-11-15T21:36:25.085Z,4.53
2022-11-15T21:38:28.534Z,4.77
2022-11-15T21:40:30.555Z,4.57
2022-11-15T21:42:32.495Z,4.70
2022-11-15T21:44:34.819Z,4.47
2022-11-15T21:46:37.622Z,4.43
2022-11-15T21:48:39.445Z,5.00
2022-11-15T21:50:42.079Z,4.63
2022-11-15T21:52:44.439Z,5.57
2022-11-15T21:54:46.263Z,5.27
2022-11-15T21:56:48.175Z,5.40
2022-11-15T21:58:50.436Z,4.87
2022-11-15T22:01:12.288Z,5.00
2022-11-15T22:03:14.009Z,4.83
2022-11-15T22:05:16.336Z,5.23
2022-11-15T22:07:18.218Z,4.83
2022-11-15T22:09:27.581Z,5.50
2022-11-15T22:11:30.490Z,5.13
2022-11-15T22:13:33.029Z,4.90
2022-11-15T22:15:36.972Z,5.03
2022-11-15T22:17:57.254Z,5.27
2022-11-15T22:20:11.481Z,4.93
2022-11-15T22:22:24.336Z,5.00
2022-11-15T22:24:28.508Z,4.63
2022-11-15T22:26:39.345Z,5.17
2022-11-15T22:28:41.981Z,4.87
2022-11-15T22:30:48.994Z,5.20
2022-11-15T22:32:50.857Z,4.70
2022-11-15T22:34:54.513Z,5.13
2022-11-15T22:37:20.068Z,4.40
2022-11-15T22:39:22.554Z,4.67
2022-11-15T22:41:25.893Z,4.00
2022-11-15T22:43:28.069Z,3.97
2022-11-15T22:45:30.234Z,3.70
2022-11-15T22:47:32.276Z,3.80
2022-11-15T22:49:40.939Z,3.90
2022-11-15T22:51:43.270Z,3.90
2022-11-15T22:53:47.205Z,3.80
2022-11-15T22:56:00.549Z,3.20
2022-11-15T22:58:02.727Z,3.40
2022-11-15T23:00:09.530Z,3.40
2022-11-15T23:02:13.231Z,3.90
2022-11-15T23:04:15.035Z,3.30
2022-11-15T23:06:17.377Z,3.67
2022-11-15T23:08:22.879Z,3.13
2022-11-15T23:10:43.575Z,3.40
2022-11-15T23:13:05.700Z,3.20
2022-11-15T23:15:11.736Z,3.63
2022-11-15T23:17:16.445Z,3.17
2022-11-15T23:19:18.515Z,3.50
2022-11-15T23:21:42.749Z,3.60
2022-11-15T23:23:44.488Z,3.70
2022-11-15T23:25:46.650Z,4.07
2022-11-15T23:27:48.447Z,3.37
2022-11-15T23:30:08.938Z,3.47
2022-11-15T23:32:29.127Z,3.63
2022-11-15T23:34:32.604Z,3.80
2022-11-15T23:36:34.478Z,3.40
2022-11-15T23:38:37.544Z,3.73
2022-11-15T23:40:39.385Z,3.80
2022-11-15T23:42:41.582Z,3.60
2022-11-15T23:44:43.322Z,3.90
2022-11-15T23:46:45.313Z,4.03
2022-11-15T23:48:48.850Z,3.13
2022-11-15T23:50:50.675Z,2.90
2022-11-15T23:52:52.916Z,2.77
2022-11-15T23:54:54.897Z,2.80
2022-11-15T23:56:57.052Z,2.90
2022-11-15T23:58:58.936Z,2.60
